Time;durP1;ratioP1;P1;durP2;ratioP2;P2;SDS_P1;SDS_P2;PMS_P1;PMS_P2;Temp;Humidity;BMP_temperature;BMP_pressure;BME280_temperature;BME280_humidity;BME280_pressure;Samples;Min_cycle;Max_cycle;Signal;HPM_P1;HPM_P2
2020/12/07 13:12:47;;;;;;;10.23;6.68;;;6.70;99.90;;;;;;5124648;27;20644;-77
2020/12/07 13:15:14;;;;;;;14.15;6.82;;;8.50;99.90;;;;;;5121186;28;20034;-76
2020/12/07 13:17:41;;;;;;;11.95;6.50;;;6.90;99.90;;;;;;5103939;28;20032;-76
2020/12/07 13:20:09;;;;;;;11.82;7.18;;;;;;;;;;5104135;28;20016;-77
2020/12/07 13:25:17;;;;;;;14.27;6.90;;;;;;;;;;5104379;28;20514;-77
2020/12/07 13:30:10;;;;;;;11.68;6.47;;;;;;;;;;5103999;28;20028;-76
2020/12/07 13:32:36;;;;;;;9.32;6.28;;;;;;;;;;5103841;28;20038;-76
2020/12/07 13:35:03;;;;;;;13.27;7.45;;;;;;;;;;5086353;28;20032;-77
2020/12/07 13:37:29;;;;;;;10.63;6.75;;;;;;;;;;5085494;28;20031;-77
2020/12/07 13:39:56;;;;;;;10.65;6.95;;;;;;;;;;5086609;28;20020;-76
2020/12/07 13:42:22;;;;;;;11.90;7.10;;;;;;;;;;5104850;28;20020;-77
2020/12/07 13:44:48;;;;;;;11.18;6.95;;;;;;;;;;5104507;28;20023;-79
2020/12/07 13:47:14;;;;;;;16.08;9.43;;;;;;;;;;5104520;28;20059;-76
2020/12/07 13:49:40;;;;;;;17.45;10.15;;;;;;;;;;5085950;28;20404;-76
2020/12/07 13:52:10;;;;;;;14.05;8.52;;;;;;;;;;5104168;28;20024;-76
2020/12/07 13:54:36;;;;;;;16.45;9.98;;;;;;;;;;5104927;28;20492;-77
2020/12/07 13:57:02;;;;;;;12.30;7.50;;;;;;;;;;5103510;28;20173;-77
2020/12/07 13:59:28;;;;;;;12.52;7.55;;;;;;;;;;5086425;28;20031;-76
2020/12/07 14:01:54;;;;;;;10.18;6.97;;;;;;;;;;5085434;28;20024;-76
2020/12/07 14:06:52;;;;;;;12.23;7.03;;;;;;;;;;5102972;28;20510;-77
2020/12/07 14:09:19;;;;;;;12.52;7.03;;;;;;;;;;5068731;28;20020;-77
2020/12/07 14:11:49;;;;;;;10.88;6.97;;;;;;;;;;5102917;28;20399;-76
2020/12/07 14:14:16;;;;;;;12.50;7.82;;;;;;;;;;5102863;28;20051;-76
2020/12/07 14:16:44;;;;;;;11.13;7.25;;;;;;;;;;5103202;28;20081;-77
2020/12/07 14:19:17;;;;;;;14.88;7.47;;;;;;;;;;5103282;28;20016;-77
2020/12/07 14:40:17;;;;;;;11.25;7.95;;;;;;;;;;5089983;28;20072;-78
2020/12/07 14:42:43;;;;;;;11.77;7.90;;;;;;;;;;5089921;28;20028;-75
2020/12/07 14:45:14;;;;;;;13.25;7.82;;;;;;;;;;5071544;28;20055;-77
2020/12/07 14:47:50;;;;;;;16.50;8.02;;;;;;;;;;5070383;28;20032;-77
2020/12/07 14:50:27;;;;;;;13.23;8.98;;;;;;;;;;5072523;28;20016;-80
2020/12/07 14:52:54;;;;;;;13.07;8.27;;;;;;;;;;5090771;28;20032;-78
2020/12/07 15:05:43;;;;;;;10.63;7.40;;;;;;;;;;5091040;28;20024;-76
2020/12/07 15:15:40;;;;;;;12.95;8.45;;;;;;;;;;5070679;28;20044;-77
2020/12/07 15:18:06;;;;;;;15.55;9.80;;;;;;;;;;5068901;28;20024;-77
2020/12/07 15:20:32;;;;;;;16.20;9.23;;;;;;;;;;5088984;28;20024;-76
2020/12/07 15:22:58;;;;;;;14.85;9.48;;;;;;;;;;5048034;28;20649;-77
2020/12/07 15:25:24;;;;;;;14.15;9.48;;;;;;;;;;5089323;28;20396;-77
2020/12/07 15:27:50;;;;;;;13.95;9.23;;;;;;;;;;5088440;28;20016;-76
2020/12/07 15:30:16;;;;;;;13.50;9.60;;;;;;;;;;5070701;28;20020;-77
2020/12/07 15:32:42;;;;;;;14.30;10.30;;;;;;;;;;5070493;28;20101;-76
2020/12/07 15:35:08;;;;;;;20.40;12.02;;;;;;;;;;5087602;28;20020;-76
2020/12/07 15:37:34;;;;;;;20.60;11.82;;;;;;;;;;5071663;28;20016;-76
2020/12/07 15:40:06;;;;;;;17.20;11.40;;;;;;;;;;5073074;28;20020;-78
2020/12/07 15:42:32;;;;;;;18.73;13.05;;;;;;;;;;5097541;28;20070;-77
2020/12/07 15:44:58;;;;;;;20.92;12.48;;;;;;;;;;5093453;28;20105;-77
2020/12/07 15:47:24;;;;;;;20.00;14.70;;;;;;;;;;5096928;28;20024;-77
2020/12/07 15:49:50;;;;;;;17.60;12.43;;;;;;;;;;5098392;28;20040;-77
2020/12/07 15:52:16;;;;;;;18.08;11.60;;;;;;;;;;5073437;28;20055;-77
2020/12/07 15:54:42;;;;;;;19.77;13.18;;;;;;;;;;5091959;28;20507;-80
2020/12/07 15:57:09;;;;;;;18.10;12.20;;;;;;;;;;5071921;28;20028;-77
2020/12/07 15:59:35;;;;;;;18.92;12.90;;;;;;;;;;5089000;28;20392;-76
2020/12/07 16:02:01;;;;;;;20.33;13.20;;;;;;;;;;5088832;28;20998;-76
2020/12/07 16:04:27;;;;;;;17.98;12.73;;;;;;;;;;5088173;28;20028;-76
2020/12/07 16:06:53;;;;;;;20.98;14.98;;;;;;;;;;5089133;28;20047;-76
2020/12/07 16:09:19;;;;;;;23.63;14.38;;;;;;;;;;5071437;28;20558;-76
2020/12/07 16:11:46;;;;;;;26.50;17.27;;;;;;;;;;5089395;28;20032;-77
2020/12/07 16:14:12;;;;;;;24.55;16.08;;;;;;;;;;5106786;28;20028;-77
2020/12/07 16:16:38;;;;;;;27.98;18.63;;;;;;;;;;5094119;28;20038;-77
2020/12/07 16:19:04;;;;;;;29.73;17.58;;;;;;;;;;5128532;28;20081;-77
2020/12/07 16:21:30;;;;;;;31.00;18.67;;;;;;;;;;5108936;28;20027;-78
2020/12/07 16:23:56;;;;;;;36.78;20.25;;;;;;;;;;5110287;28;20321;-77
2020/12/07 16:26:22;;;;;;;35.58;20.77;;;;;;;;;;5094759;28;20502;-77
2020/12/07 16:28:48;;;;;;;32.58;19.15;;;;;;;;;;5094034;28;20031;-77
2020/12/07 16:31:14;;;;;;;28.02;18.52;;;;;;;;;;5115987;28;20031;-78
2020/12/07 16:33:40;;;;;;;28.38;18.38;;;;;;;;;;5107803;28;20016;-78
2020/12/07 16:36:07;;;;;;;28.55;20.05;;;;;;;;;;5094394;28;20077;-78
2020/12/07 16:38:33;;;;;;;31.65;20.23;;;;;;;;;;5097878;28;20026;-78
2020/12/07 16:41:00;;;;;;;32.53;19.08;;;;;;;;;;5090289;28;20059;-78
2020/12/07 16:43:26;;;;;;;29.10;18.95;;;;;;;;;;5094494;28;20122;-78
2020/12/07 16:45:52;;;;;;;34.90;21.80;;;;;;;;;;5083996;28;20048;-77
2020/12/07 16:48:18;;;;;;;35.13;21.38;;;;;;;;;;5090037;28;20032;-77
2020/12/07 16:50:44;;;;;;;32.90;20.75;;;;;;;;;;5090355;28;20043;-77
2020/12/07 16:53:10;;;;;;;32.50;21.25;;;;;;;;;;5077450;28;20036;-78
2020/12/07 16:55:36;;;;;;;38.55;22.83;;;;;;;;;;5091328;28;20035;-77
2020/12/07 16:58:02;;;;;;;42.40;24.63;;;;;;;;;;5090502;28;20483;-77
2020/12/07 17:00:28;;;;;;;39.15;25.20;;;;;;;;;;5090241;28;20016;-77
2020/12/07 17:02:54;;;;;;;40.30;24.52;;;;;;;;;;5089280;28;20032;-77
2020/12/07 17:05:20;;;;;;;38.90;25.02;;;;;;;;;;5089421;28;20433;-77
2020/12/07 17:07:46;;;;;;;43.30;24.10;;;;;;;;;;5075701;28;20035;-76
2020/12/07 17:10:12;;;;;;;38.35;23.83;;;;;;;;;;5089558;28;20028;-77
2020/12/07 17:12:38;;;;;;;39.92;23.63;;;;;;;;;;5091047;28;20613;-76
2020/12/07 17:15:04;;;;;;;38.08;23.45;;;;;;;;;;5073083;28;20035;-76
2020/12/07 17:17:32;;;;;;;37.65;22.88;;;;;;;;;;5081549;28;20024;-77
2020/12/07 17:19:58;;;;;;;34.13;21.42;;;;;;;;;;5089797;28;20031;-76
2020/12/07 17:22:24;;;;;;;32.22;20.38;;;;;;;;;;5090938;28;20020;-76
2020/12/07 17:24:50;;;;;;;31.95;21.05;;;;;;;;;;5072626;28;20080;-76
2020/12/07 17:27:16;;;;;;;35.83;20.85;;;;;;;;;;5072486;28;20569;-76
2020/12/07 17:29:42;;;;;;;32.10;19.20;;;;;;;;;;5091216;28;20032;-79
2020/12/07 17:32:08;;;;;;;27.05;17.02;;;;;;;;;;5073012;28;20036;-78
2020/12/07 17:34:35;;;;;;;26.63;16.80;;;;;;;;;;5073044;28;20051;-75
2020/12/07 17:37:01;;;;;;;28.65;17.63;;;;;;;;;;5090069;28;20028;-76
2020/12/07 17:39:26;;;;;;;27.38;16.42;;;7.20;99.90;;;;;;5072766;28;20024;-77
2020/12/07 17:41:52;;;;;;;35.88;21.15;;;3.10;99.90;;;;;;5090997;28;20492;-77
2020/12/07 17:44:17;;;;;;;64.15;32.00;;;3.00;99.90;;;;;;5092764;28;20044;-77
2020/12/07 17:46:43;;;;;;;34.53;20.15;;;5.30;99.90;;;;;;5092306;28;20145;-78
2020/12/07 17:49:09;;;;;;;30.58;19.55;;;3.20;99.90;;;;;;5095219;28;20055;-78
2020/12/07 17:51:34;;;;;;;30.50;18.20;;;3.50;99.90;;;;;;5095441;28;20507;-77
2020/12/07 17:54:02;;;;;;;27.67;17.83;;;3.00;99.90;;;;;;5077849;28;20470;-77
2020/12/07 17:56:29;;;;;;;33.65;18.80;;;4.10;99.90;;;;;;5093195;28;20499;-77
2020/12/07 17:58:54;;;;;;;34.45;19.88;;;2.90;99.90;;;;;;5094988;28;20408;-78
2020/12/07 18:01:20;;;;;;;34.38;19.27;;;2.70;99.90;;;;;;5094826;28;20039;-77
2020/12/07 18:03:45;;;;;;;34.25;19.50;;;4.40;99.90;;;;;;5094329;28;20025;-77
2020/12/07 18:06:18;;;;;;;34.33;19.73;;;2.70;99.90;;;;;;5094383;28;20147;-77
2020/12/07 18:08:43;;;;;;;32.63;19.92;;;3.00;99.90;;;;;;5095169;28;20028;-77
2020/12/07 18:11:09;;;;;;;30.50;17.90;;;4.50;99.90;;;;;;5094309;28;20066;-78
2020/12/07 18:13:35;;;;;;;31.42;19.90;;;3.70;99.90;;;;;;5096069;28;20554;-77
2020/12/07 18:16:00;;;;;;;26.98;17.83;;;3.10;99.90;;;;;;5096986;28;20427;-77
2020/12/07 18:18:26;;;;;;;33.85;21.83;;;2.70;99.90;;;;;;5079423;28;20099;-77
2020/12/07 18:20:52;;;;;;;30.25;20.75;;;2.80;99.90;;;;;;5096228;28;20403;-77
2020/12/07 18:23:17;;;;;;;31.42;21.65;;;2.60;99.90;;;;;;5094315;28;20416;-76
2020/12/07 18:25:43;;;;;;;29.08;18.33;;;2.50;99.90;;;;;;5060265;28;20030;-77
2020/12/07 18:28:10;;;;;;;25.27;17.60;;;2.40;99.90;;;;;;5075106;28;20039;-76
2020/12/07 18:30:35;;;;;;;30.10;19.38;;;2.50;99.90;;;;;;5094173;28;20644;-77
2020/12/07 18:33:01;;;;;;;34.53;22.30;;;3.50;99.90;;;;;;5094251;28;20104;-78
2020/12/07 18:35:27;;;;;;;31.20;19.13;;;3.60;99.90;;;;;;5095722;28;20028;-77
2020/12/07 18:37:53;;;;;;;29.60;18.40;;;2.40;99.90;;;;;;5075278;28;20047;-77
2020/12/07 18:40:21;;;;;;;31.67;21.13;;;2.40;99.90;;;;;;5097421;28;20028;-78
2020/12/07 18:42:47;;;;;;;31.80;19.50;;;2.20;99.90;;;;;;5098795;28;20422;-79
2020/12/07 18:45:13;;;;;;;29.05;18.55;;;3.50;99.90;;;;;;5098412;28;20032;-78
2020/12/07 18:47:38;;;;;;;29.98;19.95;;;2.20;99.90;;;;;;5099880;28;20040;-78
2020/12/07 18:50:05;;;;;;;25.98;16.70;;;2.10;99.90;;;;;;5100468;28;20205;-77
2020/12/07 18:52:31;;;;;;;25.98;16.38;;;2.00;99.90;;;;;;5101236;28;20474;-79
2020/12/07 18:54:57;;;;;;;21.63;14.85;;;3.50;99.90;;;;;;5080556;28;20024;-78
2020/12/07 18:57:23;;;;;;;21.85;14.48;;;2.00;99.90;;;;;;5079904;28;20809;-78
2020/12/07 18:59:49;;;;;;;21.15;14.85;;;;;;;;;;5079615;28;20055;-79
2020/12/07 19:02:15;;;;;;;21.42;14.30;;;;;;;;;;5098570;28;20528;-77
2020/12/07 19:04:41;;;;;;;19.27;13.55;;;;;;;;;;5079193;28;20106;-78
2020/12/07 19:07:07;;;;;;;18.60;13.93;;;;;;;;;;5097383;28;20088;-78
2020/12/07 19:09:33;;;;;;;18.13;12.88;;;;;;;;;;5081095;28;20024;-78
